Time,TemperatureF,DewpointF,PressureIn,WindDirection,WindDirectionDegrees,WindSpeedMPH,WindSpeedGustMPH,Humidity,HourlyPrecipIn,Conditions,Clouds,dailyrainin,SoftwareType,DateUTC
2013-04-23 00:05:00,43.0,29.0,30.49,ESE,121,3.0,7.0,58,0.00,,,0.00,weatherlink.com 1.10,2013-04-23 04:05:00,
2013-04-23 00:20:00,42.5,29.0,30.49,ESE,118,3.0,5.0,59,0.00,,,0.00,weatherlink.com 1.10,2013-04-23 04:20:00,
2013-04-23 00:36:00,42.0,29.0,30.49,SE,124,0.0,5.0,60,0.00,,,0.00,weatherlink.com 1.10,2013-04-23 04:36:00,
2013-04-23 00:52:00,41.6,29.0,30.49,ESE,113,2.0,6.0,60,0.00,,,0.00,weatherlink.com 1.10,2013-04-23 04:52:00,
2013-04-23 01:08:00,41.2,28.0,30.48,East,101,2.0,4.0,60,0.00,,,0.00,weatherlink.com 1.10,2013-04-23 05:08:00,
2013-04-23 01:23:00,40.5,28.0,30.48,SSE,158,2.0,5.0,61,0.00,,,0.00,weatherlink.com 1.10,2013-04-23 05:23:00,
2013-04-23 01:39:00,40.1,28.0,30.47,ESE,107,2.0,3.0,62,0.00,,,0.00,weatherlink.com 1.10,2013-04-23 05:39:00,
2013-04-23 01:55:00,40.0,28.0,30.46,ESE,113,1.0,4.0,62,0.00,,,0.00,weatherlink.com 1.10,2013-04-23 05:55:00,
2013-04-23 02:11:00,39.3,28.0,30.46,ESE,107,0.0,2.0,63,0.00,,,0.00,weatherlink.com 1.10,2013-04-23 06:11:00,
2013-04-23 02:27:00,38.2,27.0,30.45,ESE,108,0.0,0.0,64,0.00,,,0.00,weatherlink.com 1.10,2013-04-23 06:27:00,
2013-04-23 02:43:00,36.3,27.0,30.45,East,94,0.0,1.0,69,0.00,,,0.00,weatherlink.com 1.10,2013-04-23 06:43:00,
2013-04-23 02:58:00,35.3,27.0,30.45,ESE,103,0.0,1.0,72,0.00,,,0.00,weatherlink.com 1.10,2013-04-23 06:58:00,
2013-04-23 03:14:00,34.1,27.0,30.45,ESE,103,0.0,1.0,74,0.00,,,0.00,weatherlink.com 1.10,2013-04-23 07:14:00,
2013-04-23 03:30:00,34.0,27.0,30.45,East,98,0.0,2.0,74,0.00,,,0.00,weatherlink.com 1.10,2013-04-23 07:30:00,
2013-04-23 03:45:00,33.3,26.0,30.44,East,96,0.0,1.0,75,0.00,,,0.00,weatherlink.com 1.10,2013-04-23 07:45:00,
2013-04-23 04:02:00,32.5,26.0,30.44,East,96,0.0,1.0,76,0.00,,,0.00,weatherlink.com 1.10,2013-04-23 08:02:00,
2013-04-23 04:18:00,32.3,26.0,30.43,East,96,0.0,1.0,77,0.00,,,0.00,weatherlink.com 1.10,2013-04-23 08:18:00,
2013-04-23 04:34:00,31.7,26.0,30.44,East,96,0.0,1.0,78,0.00,,,0.00,weatherlink.com 1.10,2013-04-23 08:34:00,
2013-04-23 04:50:00,31.6,26.0,30.44,East,96,0.0,1.0,79,0.00,,,0.00,weatherlink.com 1.10,2013-04-23 08:50:00,
2013-04-23 05:06:00,31.4,26.0,30.44,East,96,0.0,1.0,79,0.00,,,0.00,weatherlink.com 1.10,2013-04-23 09:06:00,
2013-04-23 05:21:00,31.1,25.0,30.43,East,96,0.0,1.0,79,0.00,,,0.00,weatherlink.com 1.10,2013-04-23 09:21:00,
2013-04-23 05:37:00,31.0,25.0,30.43,East,96,0.0,0.0,79,0.00,,,0.00,weatherlink.com 1.10,2013-04-23 09:37:00,
2013-04-23 05:53:00,30.7,25.0,30.44,East,96,0.0,1.0,80,0.00,,,0.00,weatherlink.com 1.10,2013-04-23 09:53:00,
2013-04-23 06:10:00,30.5,25.0,30.43,East,96,0.0,0.0,81,0.00,,,0.00,weatherlink.com 1.10,2013-04-23 10:10:00,
2013-04-23 06:25:00,30.4,26.0,30.44,East,96,0.0,0.0,82,0.00,,,0.00,weatherlink.com 1.10,2013-04-23 10:25:00,
2013-04-23 06:41:00,30.6,26.0,30.43,East,96,0.0,1.0,82,0.00,,,0.00,weatherlink.com 1.10,2013-04-23 10:41:00,
2013-04-23 06:57:00,31.2,26.0,30.43,East,96,0.0,0.0,82,0.00,,,0.00,weatherlink.com 1.10,2013-04-23 10:57:00,
2013-04-23 07:13:00,32.4,27.0,30.43,East,96,0.0,0.0,81,0.00,,,0.00,weatherlink.com 1.10,2013-04-23 11:13:00,
2013-04-23 07:28:00,34.2,28.0,30.43,NNW,336,1.0,1.0,77,0.00,,,0.00,weatherlink.com 1.10,2013-04-23 11:28:00,
2013-04-23 07:44:00,35.9,28.0,30.42,NNW,333,2.0,3.0,72,0.00,,,0.00,weatherlink.com 1.10,2013-04-23 11:44:00,
2013-04-23 08:00:00,36.8,28.0,30.42,NNW,345,1.0,4.0,70,0.00,,,0.00,weatherlink.com 1.10,2013-04-23 12:00:00,
2013-04-23 08:16:00,38.3,29.0,30.42,North,5,1.0,4.0,69,0.00,,,0.00,weatherlink.com 1.10,2013-04-23 12:16:00,
2013-04-23 08:32:00,39.6,29.0,30.41,West,264,0.0,4.0,65,0.00,,,0.00,weatherlink.com 1.10,2013-04-23 12:32:00,
2013-04-23 08:48:00,40.2,29.0,30.41,NNW,338,1.0,5.0,64,0.00,,,0.00,weatherlink.com 1.10,2013-04-23 12:48:00,
2013-04-23 09:03:00,41.4,30.0,30.40,East,89,1.0,3.0,63,0.00,,,0.00,weatherlink.com 1.10,2013-04-23 13:03:00,
2013-04-23 09:19:00,43.0,30.0,30.39,SE,141,1.0,3.0,61,0.00,,,0.00,weatherlink.com 1.10,2013-04-23 13:19:00,
2013-04-23 09:35:00,43.1,29.0,30.38,ESE,114,1.0,3.0,58,0.00,,,0.00,weatherlink.com 1.10,2013-04-23 13:35:00,
2013-04-23 09:51:00,43.9,30.0,30.38,SE,138,1.0,4.0,58,0.00,,,0.00,weatherlink.com 1.10,2013-04-23 13:51:00,
2013-04-23 10:07:00,43.6,30.0,30.37,SE,127,0.0,4.0,59,0.00,,,0.00,weatherlink.com 1.10,2013-04-23 14:07:00,
2013-04-23 10:22:00,43.5,30.0,30.38,NNW,335,2.0,4.0,58,0.00,,,0.00,weatherlink.com 1.10,2013-04-23 14:22:00,
2013-04-23 10:38:00,44.2,30.0,30.37,SSE,149,1.0,3.0,58,0.00,,,0.00,weatherlink.com 1.10,2013-04-23 14:38:00,
2013-04-23 10:54:00,44.4,31.0,30.37,North,349,0.0,6.0,59,0.00,,,0.00,weatherlink.com 1.10,2013-04-23 14:54:00,
2013-04-23 11:10:00,45.0,31.0,30.36,ESE,115,0.0,2.0,57,0.00,,,0.00,weatherlink.com 1.10,2013-04-23 15:10:00,
2013-04-23 11:27:00,45.2,30.0,30.35,North,9,0.0,5.0,56,0.00,,,0.00,weatherlink.com 1.10,2013-04-23 15:27:00,
2013-04-23 11:43:00,46.4,32.0,30.34,WNW,295,1.0,2.0,57,0.00,,,0.00,weatherlink.com 1.10,2013-04-23 15:43:00,
2013-04-23 11:59:00,47.4,32.0,30.34,North,349,0.0,4.0,56,0.00,,,0.00,weatherlink.com 1.10,2013-04-23 15:59:00,
2013-04-23 12:15:00,48.1,33.0,30.33,SE,145,1.0,4.0,56,0.00,,,0.00,weatherlink.com 1.10,2013-04-23 16:15:00,
2013-04-23 12:31:00,48.8,34.0,30.32,SE,124,2.0,2.0,57,0.00,,,0.00,weatherlink.com 1.10,2013-04-23 16:31:00,
2013-04-23 12:46:00,48.0,34.0,30.31,ESE,113,3.0,6.0,59,0.00,,,0.00,weatherlink.com 1.10,2013-04-23 16:46:00,
2013-04-23 13:02:00,47.6,35.0,30.31,WSW,242,0.0,7.0,61,0.00,,,0.00,weatherlink.com 1.10,2013-04-23 17:02:00,
2013-04-23 13:18:00,47.4,35.0,30.30,NNW,343,0.0,6.0,61,0.00,,,0.00,weatherlink.com 1.10,2013-04-23 17:18:00,
2013-04-23 13:34:00,46.9,37.0,30.30,SSW,200,1.0,7.0,67,0.00,,,0.00,weatherlink.com 1.10,2013-04-23 17:34:00,
2013-04-23 13:50:00,46.5,37.0,30.30,East,86,1.0,6.0,69,0.00,,,0.00,weatherlink.com 1.10,2013-04-23 17:50:00,
2013-04-23 14:06:00,47.5,37.0,30.29,East,96,0.0,4.0,67,0.00,,,0.00,weatherlink.com 1.10,2013-04-23 18:06:00,
2013-04-23 14:22:00,49.6,37.0,30.27,WNW,296,2.0,6.0,62,0.00,,,0.00,weatherlink.com 1.10,2013-04-23 18:22:00,
2013-04-23 14:38:00,51.5,38.0,30.26,NW,311,0.0,2.0,60,0.00,,,0.00,weatherlink.com 1.10,2013-04-23 18:38:00,
2013-04-23 14:53:00,52.5,38.0,30.25,SE,129,3.0,5.0,57,0.00,,,0.00,weatherlink.com 1.10,2013-04-23 18:53:00,
2013-04-23 15:09:00,51.6,38.0,30.24,ESE,107,2.0,7.0,59,0.00,,,0.00,weatherlink.com 1.10,2013-04-23 19:09:00,
2013-04-23 15:25:00,53.2,39.0,30.24,ESE,122,1.0,5.0,59,0.00,,,0.00,weatherlink.com 1.10,2013-04-23 19:25:00,
2013-04-23 15:41:00,54.2,39.0,30.23,East,101,0.0,9.0,57,0.00,,,0.00,weatherlink.com 1.10,2013-04-23 19:41:00,
2013-04-23 15:57:00,55.1,38.0,30.22,East,87,0.0,9.0,53,0.00,,,0.00,weatherlink.com 1.10,2013-04-23 19:57:00,
2013-04-23 16:13:00,54.9,38.0,30.21,SSE,150,5.0,11.0,52,0.00,,,0.00,weatherlink.com 1.10,2013-04-23 20:13:00,
2013-04-23 16:29:00,54.6,38.0,30.21,SE,136,2.0,12.0,53,0.00,,,0.00,weatherlink.com 1.10,2013-04-23 20:29:00,
2013-04-23 16:45:00,54.6,36.0,30.21,East,84,3.0,11.0,50,0.00,,,0.00,weatherlink.com 1.10,2013-04-23 20:45:00,
2013-04-23 17:01:00,54.2,37.0,30.21,ESE,103,4.0,10.0,52,0.00,,,0.00,weatherlink.com 1.10,2013-04-23 21:01:00,
2013-04-23 17:16:00,53.5,38.0,30.21,SE,139,4.0,9.0,55,0.00,,,0.00,weatherlink.com 1.10,2013-04-23 21:16:00,
2013-04-23 17:32:00,53.1,38.0,30.22,East,97,4.0,7.0,56,0.00,,,0.00,weatherlink.com 1.10,2013-04-23 21:32:00,
2013-04-23 17:48:00,52.8,38.0,30.21,ESE,115,4.0,8.0,57,0.00,,,0.00,weatherlink.com 1.10,2013-04-23 21:48:00,
2013-04-23 18:04:00,52.6,38.0,30.20,East,101,3.0,6.0,58,0.00,,,0.00,weatherlink.com 1.10,2013-04-23 22:04:00,
2013-04-23 18:20:00,53.0,39.0,30.17,ESE,105,2.0,7.0,58,0.00,,,0.00,weatherlink.com 1.10,2013-04-23 22:20:00,
2013-04-23 18:36:00,53.3,38.0,30.16,East,87,4.0,5.0,57,0.00,,,0.00,weatherlink.com 1.10,2013-04-23 22:36:00,
2013-04-23 18:52:00,53.0,39.0,30.17,ESE,123,3.0,6.0,58,0.00,,,0.00,weatherlink.com 1.10,2013-04-23 22:52:00,
2013-04-23 19:08:00,52.8,39.0,30.18,ESE,107,2.0,4.0,59,0.00,,,0.00,weatherlink.com 1.10,2013-04-23 23:08:00,
2013-04-23 19:23:00,52.5,39.0,30.17,ESE,108,1.0,4.0,60,0.00,,,0.00,weatherlink.com 1.10,2013-04-23 23:23:00,
2013-04-23 19:39:00,52.1,39.0,30.17,West,263,0.0,5.0,61,0.00,,,0.00,weatherlink.com 1.10,2013-04-23 23:39:00,
2013-04-23 19:55:00,51.8,39.0,30.18,SW,229,0.0,2.0,61,0.00,,,0.00,weatherlink.com 1.10,2013-04-23 23:55:00,
2013-04-23 20:11:00,51.6,39.0,30.17,ESE,108,1.0,2.0,62,0.00,,,0.00,weatherlink.com 1.10,2013-04-24 00:11:00,
2013-04-23 20:27:00,51.4,39.0,30.16,SE,129,1.0,4.0,63,0.00,,,0.00,weatherlink.com 1.10,2013-04-24 00:27:00,
2013-04-23 20:42:00,50.8,39.0,30.15,East,92,2.0,5.0,64,0.00,,,0.00,weatherlink.com 1.10,2013-04-24 00:42:00,
2013-04-23 20:58:00,50.3,39.0,30.14,ESE,118,0.0,2.0,65,0.00,,,0.00,weatherlink.com 1.10,2013-04-24 00:58:00,
2013-04-23 21:14:00,49.6,39.0,30.14,SE,126,0.0,1.0,66,0.00,,,0.00,weatherlink.com 1.10,2013-04-24 01:14:00,
2013-04-23 21:29:00,48.9,39.0,30.13,ESE,120,1.0,2.0,68,0.00,,,0.00,weatherlink.com 1.10,2013-04-24 01:29:00,
2013-04-23 21:46:00,47.8,38.0,30.13,ESE,115,0.0,1.0,70,0.00,,,0.00,weatherlink.com 1.10,2013-04-24 01:46:00,
2013-04-23 22:02:00,47.0,39.0,30.12,ESE,116,0.0,1.0,73,0.00,,,0.00,weatherlink.com 1.10,2013-04-24 02:02:00,
2013-04-23 22:34:00,45.2,38.0,30.12,SW,219,0.0,1.0,77,0.00,,,0.00,weatherlink.com 1.10,2013-04-24 02:34:00,
2013-04-23 22:49:00,45.8,39.0,30.12,WSW,257,0.0,2.0,76,0.00,,,0.00,weatherlink.com 1.10,2013-04-24 02:49:00,
2013-04-23 23:05:00,46.0,39.0,30.12,East,84,0.0,2.0,75,0.00,,,0.00,weatherlink.com 1.10,2013-04-24 03:05:00,
2013-04-23 23:53:00,43.7,37.0,30.10,East,97,0.0,0.0,78,0.00,,,0.00,weatherlink.com 1.10,2013-04-24 03:53:00,